Time;durP1;ratioP1;P1;durP2;ratioP2;P2;SDS_P1;SDS_P2;PMS_P1;PMS_P2;Temp;Humidity;BMP_temperature;BMP_pressure;BME280_temperature;BME280_humidity;BME280_pressure;Samples;Min_cycle;Max_cycle;Signal;HPM_P1;HPM_P2
2023/10/05 00:01:56;;;;;;;;;;;15.30;88.60;;;;;;4994938;28;20086;-64
2023/10/05 00:03:51;;;;;;;;;;;15.30;87.80;;;;;;4984219;28;20034;-64
2023/10/05 00:06:23;;;;;;;;;;;15.30;87.70;;;;;;4994997;28;19990;-64
2023/10/05 00:08:49;;;;;;;;;;;15.20;87.90;;;;;;4994870;28;20042;-64
2023/10/05 00:11:28;;;;;;;;;;;15.20;86.90;;;;;;4994850;28;19999;-64
2023/10/05 00:13:57;;;;;;;;;;;15.20;87.10;;;;;;4994746;28;19990;-64
2023/10/05 00:16:23;;;;;;;;;;;15.20;86.70;;;;;;4994704;28;19990;-64
2023/10/05 00:18:49;;;;;;;;;;;15.10;87.90;;;;;;4994984;28;20026;-64
2023/10/05 00:21:18;;;;;;;;;;;15.10;89.50;;;;;;4994672;28;19983;-65
2023/10/05 00:23:44;;;;;;;;;;;15.10;89.40;;;;;;4994820;28;19990;-64
2023/10/05 00:26:10;;;;;;;;;;;15.10;88.70;;;;;;4994613;28;20434;-64
2023/10/05 00:28:36;;;;;;;;;;;15.10;89.20;;;;;;4994467;28;20548;-64
2023/10/05 00:31:03;;;;;;;;;;;15.00;88.90;;;;;;4994426;28;20006;-64
2023/10/05 00:33:28;;;;;;;;;;;15.00;90.00;;;;;;4994580;28;19982;-64
2023/10/05 00:35:54;;;;;;;;;;;14.90;90.20;;;;;;4994357;28;19990;-64
2023/10/05 00:38:19;;;;;;;;;;;14.90;90.30;;;;;;4994486;28;19982;-64
2023/10/05 00:43:23;;;;;;;;;;;15.00;90.30;;;;;;4994578;28;20041;-64
2023/10/05 00:45:50;;;;;;;;;;;14.90;92.20;;;;;;4993851;28;20081;-64
2023/10/05 00:50:59;;;;;;;;;;;14.70;93.60;;;;;;4994487;28;19982;-64
2023/10/05 00:53:27;;;;;;;;;;;14.60;94.30;;;;;;4994313;28;19983;-64
2023/10/05 00:56:03;;;;;;;;;;;14.60;94.50;;;;;;4994243;28;20049;-64
2023/10/05 00:58:38;;;;;;;;;;;14.60;94.80;;;;;;4994191;28;19983;-64
2023/10/05 01:01:14;;;;;;;;;;;14.60;94.60;;;;;;4994239;28;20033;-64
2023/10/05 01:03:59;;;;;;;;;;;14.60;94.50;;;;;;4994047;28;20022;-64
2023/10/05 01:07:17;;;;;;;;;;;14.60;94.10;;;;;;4994152;28;19983;-64
2023/10/05 01:14:59;;;;;;;;;;;14.70;94.30;;;;;;4993947;28;20021;-64
2023/10/05 01:17:26;;;;;;;;;;;14.60;94.60;;;;;;4994247;28;19986;-64
2023/10/05 01:19:56;;;;;;;;;;;14.50;94.70;;;;;;4994056;28;20465;-64
2023/10/05 01:22:24;;;;;;;;;;;14.50;94.70;;;;;;4993991;28;20033;-64
2023/10/05 01:24:49;;;;;;;;;;;14.50;94.70;;;;;;4994057;28;19989;-64
2023/10/05 01:27:16;;;;;;;;;;;14.50;93.80;;;;;;4994100;28;20353;-64
2023/10/05 01:29:41;;;;;;;;;;;14.50;94.00;;;;;;4993679;28;20093;-64
2023/10/05 01:32:07;;;;;;;;;;;14.50;92.70;;;;;;4993986;28;20010;-64
2023/10/05 01:34:33;;;;;;;;;;;14.50;92.50;;;;;;4993911;28;19989;-64
2023/10/05 01:36:58;;;;;;;;;;;14.50;93.10;;;;;;4993861;28;19990;-64
2023/10/05 01:39:26;;;;;;;;;;;14.40;93.50;;;;;;4993986;28;19983;-64
2023/10/05 01:41:51;;;;;;;;;;;14.40;93.60;;;;;;4994282;28;20023;-63
2023/10/05 01:44:17;;;;;;;;;;;14.40;93.90;;;;;;4993654;28;19986;-64
2023/10/05 01:46:44;;;;;;;;;;;14.30;92.90;;;;;;4993930;28;19987;-63
2023/10/05 01:49:10;;;;;;;;;;;14.30;92.70;;;;;;4993791;28;20007;-64
2023/10/05 01:51:35;;;;;;;;;;;14.30;92.60;;;;;;4993818;28;19983;-64
2023/10/05 01:54:26;;;;;;;;;;;14.30;93.30;;;;;;4993739;28;19982;-64
2023/10/05 01:56:49;;;;;;;;;;;14.20;93.20;;;;;;4993825;28;20345;-65
2023/10/05 01:59:20;;;;;;;;;;;14.20;92.90;;;;;;4997318;28;19983;-64
2023/10/05 02:01:46;;;;;;;;;;;14.20;92.70;;;;;;4997401;28;20014;-64
2023/10/05 02:04:11;;;;;;;;;;;14.20;93.30;;;;;;4997080;28;20108;-64
2023/10/05 02:06:41;;;;;;;;;;;14.20;93.00;;;;;;4979589;28;20091;-64
2023/10/05 02:09:09;;;;;;;;;;;14.20;92.60;;;;;;4997111;28;20006;-64
2023/10/05 02:11:36;;;;;;;;;;;14.20;92.30;;;;;;4996989;28;20070;-64
2023/10/05 02:14:06;;;;;;;;;;;14.20;92.60;;;;;;4997022;28;19982;-64
2023/10/05 02:16:32;;;;;;;;;;;14.20;93.00;;;;;;4997120;28;19982;-64
2023/10/05 02:19:03;;;;;;;;;;;14.20;92.60;;;;;;4996875;28;20006;-64
2023/10/05 02:21:38;;;;;;;;;;;14.10;92.40;;;;;;4997056;28;19994;-64
2023/10/05 02:24:16;;;;;;;;;;;14.10;92.60;;;;;;4996927;28;19982;-64
2023/10/05 02:26:54;;;;;;;;;;;14.10;92.70;;;;;;4979111;28;19986;-64
2023/10/05 02:29:21;;;;;;;;;;;14.00;92.70;;;;;;4996759;28;20006;-63
2023/10/05 02:34:22;;;;;;;;;;;14.00;93.90;;;;;;4997007;28;20069;-64
2023/10/05 02:36:47;;;;;;;;;;;13.90;94.40;;;;;;4996700;28;20081;-64
2023/10/05 02:39:14;;;;;;;;;;;14.00;94.60;;;;;;4996490;28;19983;-65
2023/10/05 02:41:40;;;;;;;;;;;13.90;94.10;;;;;;4996505;28;19983;-64
2023/10/05 02:44:17;;;;;;;;;;;14.00;93.40;;;;;;4996487;28;20448;-64
2023/10/05 02:46:47;;;;;;;;;;;13.90;93.40;;;;;;4996490;28;20033;-64
2023/10/05 02:49:15;;;;;;;;;;;13.80;93.30;;;;;;4996346;28;20103;-64
2023/10/05 02:51:41;;;;;;;;;;;13.80;93.70;;;;;;4996304;28;20363;-64
2023/10/05 02:54:10;;;;;;;;;;;13.80;93.60;;;;;;4996463;28;19990;-64
2023/10/05 02:56:36;;;;;;;;;;;13.80;93.40;;;;;;4996155;28;19990;-64
2023/10/05 02:59:07;;;;;;;;;;;13.80;93.50;;;;;;4996185;28;20081;-64
2023/10/05 03:01:39;;;;;;;;;;;13.80;94.20;;;;;;4996187;28;19983;-64
2023/10/05 03:06:40;;;;;;;;;;;13.80;94.40;;;;;;4996026;28;19982;-64
2023/10/05 03:09:09;;;;;;;;;;;13.80;94.00;;;;;;4995757;28;20010;-64
2023/10/05 03:11:38;;;;;;;;;;;13.80;94.10;;;;;;4995849;28;19983;-64
2023/10/05 03:14:04;;;;;;;;;;;13.80;94.00;;;;;;4996242;28;20330;-64
2023/10/05 03:16:30;;;;;;;;;;;13.80;94.60;;;;;;4995989;28;19989;-64
2023/10/05 03:19:00;;;;;;;;;;;13.80;94.10;;;;;;4978351;28;20436;-64
2023/10/05 03:21:26;;;;;;;;;;;13.80;93.80;;;;;;4995807;28;19991;-64
2023/10/05 03:23:52;;;;;;;;;;;13.80;93.70;;;;;;4995691;28;20059;-64
2023/10/05 03:26:18;;;;;;;;;;;13.80;93.50;;;;;;4995667;28;19991;-64
2023/10/05 03:28:44;;;;;;;;;;;13.70;93.30;;;;;;4995503;28;20061;-64
2023/10/05 03:31:24;;;;;;;;;;;13.70;93.50;;;;;;4995642;28;19983;-64
2023/10/05 03:33:52;;;;;;;;;;;13.60;93.40;;;;;;4995533;28;20045;-64
2023/10/05 03:36:17;;;;;;;;;;;13.60;93.30;;;;;;4995585;28;19991;-64
2023/10/05 03:38:43;;;;;;;;;;;13.60;93.30;;;;;;4995364;28;20033;-64
2023/10/05 03:41:15;;;;;;;;;;;13.60;93.60;;;;;;4995368;28;19990;-64
2023/10/05 03:43:41;;;;;;;;;;;13.60;93.60;;;;;;4995524;28;20074;-63
2023/10/05 03:46:06;;;;;;;;;;;13.50;93.80;;;;;;4995409;28;20034;-64
2023/10/05 03:48:35;;;;;;;;;;;13.50;94.10;;;;;;4995167;28;20376;-64
2023/10/05 03:51:00;;;;;;;;;;;13.40;94.60;;;;;;4995312;28;19983;-64
2023/10/05 03:53:26;;;;;;;;;;;13.40;94.90;;;;;;4995068;28;20029;-64
2023/10/05 03:55:52;;;;;;;;;;;13.50;95.00;;;;;;4995100;28;19986;-64
2023/10/05 03:58:17;;;;;;;;;;;13.50;94.70;;;;;;4995292;28;19986;-64
2023/10/05 04:00:48;;;;;;;;;;;13.50;94.70;;;;;;4995196;28;19982;-64
2023/10/05 04:03:14;;;;;;;;;;;13.40;94.50;;;;;;4994733;28;20029;-64
2023/10/05 04:05:40;;;;;;;;;;;13.40;94.80;;;;;;4994994;28;19991;-64
2023/10/05 04:08:16;;;;;;;;;;;13.40;94.80;;;;;;4994706;28;19983;-64
2023/10/05 04:10:49;;;;;;;;;;;13.30;95.30;;;;;;4994847;28;20005;-64
2023/10/05 04:13:17;;;;;;;;;;;13.30;95.60;;;;;;4994968;28;19990;-64
2023/10/05 04:15:43;;;;;;;;;;;13.30;96.00;;;;;;4994878;28;19991;-64
2023/10/05 04:18:14;;;;;;;;;;;13.40;95.80;;;;;;4994698;28;20556;-64
2023/10/05 04:20:43;;;;;;;;;;;13.40;95.50;;;;;;4994059;28;20005;-64
2023/10/05 04:23:25;;;;;;;;;;;13.40;95.20;;;;;;4994523;28;20509;-64
2023/10/05 04:25:52;;;;;;;;;;;13.40;95.00;;;;;;4994745;28;20029;-64
2023/10/05 04:28:22;;;;;;;;;;;13.40;94.80;;;;;;4994616;28;20011;-64
2023/10/05 04:30:49;;;;;;;;;;;13.40;94.70;;;;;;4994500;28;19987;-64
2023/10/05 04:33:17;;;;;;;;;;;13.40;94.40;;;;;;4994647;28;19983;-64
2023/10/05 04:35:45;;;;;;;;;;;13.30;94.90;;;;;;4994582;28;20418;-63
2023/10/05 04:38:11;;;;;;;;;;;13.30;94.80;;;;;;4994279;28;19990;-64
2023/10/05 04:40:38;;;;;;;;;;;13.30;94.70;;;;;;4994548;28;19983;-63
2023/10/05 04:43:05;;;;;;;;;;;13.30;94.60;;;;;;4994497;28;20034;-64
2023/10/05 04:45:31;;;;;;;;;;;13.30;94.70;;;;;;4994316;28;20006;-64
2023/10/05 04:47:59;;;;;;;;;;;13.20;94.80;;;;;;4994300;28;20443;-64
2023/10/05 04:50:26;;;;;;;;;;;13.20;95.10;;;;;;4994402;28;19990;-64
2023/10/05 04:52:52;;;;;;;;;;;13.20;95.20;;;;;;4994310;28;19983;-64
2023/10/05 04:55:18;;;;;;;;;;;13.30;95.50;;;;;;4994331;28;20390;-64
2023/10/05 04:57:54;;;;;;;;;;;13.20;95.30;;;;;;4994269;28;20030;-64
2023/10/05 05:01:15;;;;;;;;;;;13.20;95.60;;;;;;4994444;28;19983;-64
2023/10/05 05:08:32;;;;;;;;;;;13.10;97.20;;;;;;4993949;28;20484;-64
2023/10/05 05:11:00;;;;;;;;;;;13.10;97.40;;;;;;4994121;28;19987;-64
2023/10/05 05:13:28;;;;;;;;;;;13.10;97.20;;;;;;4994105;28;19989;-64
2023/10/05 05:15:55;;;;;;;;;;;13.20;97.40;;;;;;4994051;28;19983;-63
2023/10/05 05:18:21;;;;;;;;;;;13.20;97.10;;;;;;4994198;28;19987;-64
2023/10/05 05:20:47;;;;;;;;;;;13.20;96.60;;;;;;4993797;28;20003;-64
2023/10/05 05:23:13;;;;;;;;;;;13.30;96.70;;;;;;4993995;28;19982;-64
2023/10/05 05:25:39;;;;;;;;;;;13.30;96.70;;;;;;4993969;28;19986;-64
2023/10/05 05:28:05;;;;;;;;;;;13.40;97.00;;;;;;4993988;28;19982;-63
2023/10/05 05:30:36;;;;;;;;;;;13.40;96.70;;;;;;4994357;28;19990;-63
2023/10/05 05:33:09;;;;;;;;;;;13.40;97.00;;;;;;4997820;28;20018;-64
2023/10/05 05:35:43;;;;;;;;;;;13.50;96.90;;;;;;4997652;28;20352;-64
2023/10/05 05:38:11;;;;;;;;;;;13.50;96.10;;;;;;4997670;28;20429;-64
2023/10/05 05:40:37;;;;;;;;;;;13.60;95.70;;;;;;4997772;28;19987;-64
2023/10/05 05:43:11;;;;;;;;;;;13.70;94.80;;;;;;4997759;28;20033;-64
2023/10/05 05:45:43;;;;;;;;;;;13.70;94.70;;;;;;4997577;28;20077;-64
2023/10/05 05:48:13;;;;;;;;;;;13.80;94.20;;;;;;4997451;28;19983;-64
2023/10/05 05:50:43;;;;;;;;;;;13.80;94.20;;;;;;4997290;28;20033;-64
2023/10/05 05:53:11;;;;;;;;;;;13.80;93.90;;;;;;4997550;28;19983;-64
2023/10/05 05:55:44;;;;;;;;;;;13.80;94.40;;;;;;4997452;28;19990;-64
2023/10/05 05:58:14;;;;;;;;;;;13.90;94.50;;;;;;4997271;28;20065;-64
2023/10/05 06:00:40;;;;;;;;;;;13.90;94.10;;;;;;4997343;28;19990;-64
2023/10/05 06:03:10;;;;;;;;;;;14.00;94.00;;;;;;4979657;28;19987;-64
2023/10/05 06:05:36;;;;;;;;;;;14.00;94.30;;;;;;4997006;28;20034;-64
2023/10/05 06:08:03;;;;;;;;;;;14.10;94.20;;;;;;4997178;28;20064;-64
2023/10/05 06:10:34;;;;;;;;;;;14.20;94.70;;;;;;4997155;28;19987;-64
2023/10/05 06:12:59;;;;;;;;;;;14.20;94.90;;;;;;4979588;28;20416;-64
2023/10/05 06:15:25;;;;;;;;;;;14.30;94.90;;;;;;4997137;28;19982;-64
2023/10/05 06:17:50;;;;;;;;;;;14.30;94.70;;;;;;4996780;28;20033;-64
2023/10/05 06:20:17;;;;;;;;;;;14.30;94.80;;;;;;4996787;28;20010;-64
2023/10/05 06:22:44;;;;;;;;;;;15.40;93.20;;;;;;4996948;28;20504;-64
2023/10/05 06:25:16;;;;;;;;;;;17.50;85.40;;;;;;4996935;28;19983;-64
2023/10/05 06:27:45;;;;;;;;;;;19.50;69.90;;;;;;4997074;28;20029;-64
2023/10/05 06:30:11;;;;;;;;;;;21.30;59.20;;;;;;4996775;28;20013;-64
2023/10/05 06:32:37;;;;;;;;;;;22.60;53.80;;;;;;4996548;28;20069;-64
2023/10/05 06:35:03;;;;;;;;;;;23.70;50.20;;;;;;4996577;28;19982;-64
2023/10/05 06:37:29;;;;;;;;;;;24.60;46.90;;;;;;4996670;28;19983;-64
2023/10/05 06:39:55;;;;;;;;;;;25.50;45.10;;;;;;4996901;28;19983;-64
2023/10/05 06:42:21;;;;;;;;;;;25.90;42.30;;;;;;4995787;28;19983;-64
2023/10/05 06:44:46;;;;;;;;;;;26.30;41.40;;;;;;4979020;28;19994;-63
2023/10/05 06:47:35;;;;;;;;;;;26.60;40.90;;;;;;4996339;28;19990;-65
2023/10/05 06:50:00;;;;;;;;;;;27.00;40.00;;;;;;4996182;28;20018;-65
2023/10/05 06:52:26;;;;;;;;;;;27.60;39.30;;;;;;4996423;28;19982;-65
2023/10/05 06:54:51;;;;;;;;;;;27.80;37.80;;;;;;4996156;28;19989;-65
2023/10/05 06:57:17;;;;;;;;;;;27.10;37.80;;;;;;4996275;28;20077;-64
2023/10/05 06:59:43;;;;;;;;;;;26.20;38.90;;;;;;4996246;28;20038;-64
2023/10/05 07:02:09;;;;;;;;;;;26.00;40.00;;;;;;4996246;28;19983;-65
2023/10/05 07:04:35;;;;;;;;;;;25.70;40.90;;;;;;4995945;28;20029;-65
2023/10/05 07:07:03;;;;;;;;;;;25.20;41.10;;;;;;4996069;28;20022;-64
2023/10/05 07:09:30;;;;;;;;;;;24.70;41.30;;;;;;4995980;28;20093;-65
2023/10/05 07:11:55;;;;;;;;;;;23.90;42.10;;;;;;4995967;28;20029;-64
2023/10/05 07:14:21;;;;;;;;;;;23.20;44.40;;;;;;4996011;28;20026;-65
2023/10/05 07:16:46;;;;;;;;;;;22.60;45.30;;;;;;4995779;28;20090;-64
2023/10/05 07:19:12;;;;;;;;;;;22.30;45.60;;;;;;4995734;28;20346;-64
2023/10/05 07:21:38;;;;;;;;;;;22.30;46.70;;;;;;4995850;28;20058;-64
2023/10/05 07:24:04;;;;;;;;;;;23.10;46.50;;;;;;4995772;28;19983;-65
2023/10/05 07:26:30;;;;;;;;;;;24.20;45.30;;;;;;4995751;28;19995;-65
2023/10/05 07:28:55;;;;;;;;;;;24.60;44.80;;;;;;4995678;28;20033;-65
2023/10/05 07:31:22;;;;;;;;;;;24.80;44.50;;;;;;4978048;28;20074;-65
2023/10/05 07:33:48;;;;;;;;;;;25.60;44.00;;;;;;4995557;28;20383;-64
2023/10/05 07:36:14;;;;;;;;;;;25.70;41.60;;;;;;4995586;28;20344;-65
2023/10/05 07:38:40;;;;;;;;;;;26.10;42.20;;;;;;4995568;28;20033;-64
2023/10/05 07:41:07;;;;;;;;;;;25.50;41.50;;;;;;4995434;28;20496;-65
2023/10/05 07:43:34;;;;;;;;;;;25.20;41.50;;;;;;4995447;28;19993;-65
2023/10/05 07:46:00;;;;;;;;;;;25.10;41.60;;;;;;4995246;28;20081;-65
2023/10/05 07:48:26;;;;;;;;;;;25.30;42.60;;;;;;4995271;28;20007;-65
2023/10/05 07:50:51;;;;;;;;;;;24.90;42.80;;;;;;4995231;28;20069;-65
2023/10/05 07:53:17;;;;;;;;;;;24.60;43.20;;;;;;4977775;28;19999;-65
2023/10/05 07:55:43;;;;;;;;;;;24.40;41.70;;;;;;4994275;28;19983;-65
2023/10/05 07:58:08;;;;;;;;;;;24.10;42.70;;;;;;4995051;28;19990;-63
2023/10/05 08:00:34;;;;;;;;;;;24.20;43.50;;;;;;4994848;28;19983;-65
2023/10/05 08:03:00;;;;;;;;;;;24.30;42.90;;;;;;4995148;28;20380;-65
2023/10/05 08:05:26;;;;;;;;;;;25.10;41.30;;;;;;4994912;28;20081;-64
2023/10/05 08:07:52;;;;;;;;;;;25.80;40.30;;;;;;4994977;28;19983;-66
2023/10/05 08:10:18;;;;;;;;;;;26.00;41.20;;;;;;4994823;28;20061;-65
2023/10/05 08:12:50;;;;;;;;;;;25.70;41.50;;;;;;4994850;28;20345;-65
2023/10/05 08:15:18;;;;;;;;;;;26.40;41.70;;;;;;4994671;28;20010;-65
2023/10/05 08:17:44;;;;;;;;;;;28.00;38.50;;;;;;4994825;28;19989;-66
2023/10/05 08:20:11;;;;;;;;;;;28.40;37.10;;;;;;4994929;28;20093;-65
2023/10/05 08:22:37;;;;;;;;;;;27.40;39.10;;;;;;4994751;28;19999;-65
2023/10/05 08:25:11;;;;;;;;;;;26.90;37.70;;;;;;4994762;28;20073;-65
2023/10/05 08:27:38;;;;;;;;;;;26.10;40.90;;;;;;4994555;28;20013;-64
2023/10/05 08:30:08;;;;;;;;;;;25.40;42.00;;;;;;4994374;28;20042;-65
2023/10/05 08:32:34;;;;;;;;;;;24.70;41.70;;;;;;4994580;28;20442;-65
2023/10/05 08:35:07;;;;;;;;;;;24.30;42.30;;;;;;4994484;28;19983;-65
2023/10/05 08:37:42;;;;;;;;;;;24.20;41.50;;;;;;4994471;28;19983;-65
2023/10/05 08:43:12;;;;;;;;;;;24.20;43.50;;;;;;4994450;28;20410;-66
2023/10/05 08:45:45;;;;;;;;;;;24.30;42.50;;;;;;4994189;28;20037;-66
2023/10/05 08:48:19;;;;;;;;;;;24.70;43.20;;;;;;4994362;28;20077;-65
2023/10/05 08:50:46;;;;;;;;;;;25.00;42.90;;;;;;4994305;28;19987;-64
2023/10/05 08:53:13;;;;;;;;;;;24.90;41.60;;;;;;4994331;28;20005;-65
2023/10/05 08:55:41;;;;;;;;;;;24.80;42.70;;;;;;4994238;28;19990;-66
2023/10/05 08:58:08;;;;;;;;;;;24.60;41.50;;;;;;4993992;28;20005;-66
2023/10/05 09:00:40;;;;;;;;;;;24.50;42.50;;;;;;4977089;28;20457;-65
2023/10/05 09:03:13;;;;;;;;;;;24.70;43.80;;;;;;4994094;28;20294;-65
2023/10/05 09:06:12;;;;;;;;;;;24.90;42.60;;;;;;4994865;28;20017;-66
2023/10/05 09:08:43;;;;;;;;;;;24.90;44.40;;;;;;4980682;28;20407;-65
2023/10/05 09:11:09;;;;;;;;;;;25.00;42.90;;;;;;4998367;28;19987;-65
2023/10/05 09:13:47;;;;;;;;;;;25.40;43.20;;;;;;4998036;28;20003;-66
2023/10/05 09:16:30;;;;;;;;;;;25.40;42.00;;;;;;4998225;28;19982;-65
2023/10/05 09:18:57;;;;;;;;;;;25.20;43.90;;;;;;4998064;28;19999;-65
2023/10/05 09:21:42;;;;;;;;;;;25.60;41.70;;;;;;4998369;28;19990;-66
2023/10/05 09:24:19;;;;;;;;;;;26.00;40.50;;;;;;4998070;28;20077;-65
2023/10/05 09:26:49;;;;;;;;;;;26.40;40.70;;;;;;4997783;28;20069;-65
2023/10/05 09:29:20;;;;;;;;;;;26.80;39.70;;;;;;4997892;28;20054;-66
2023/10/05 09:31:50;;;;;;;;;;;27.20;39.30;;;;;;4997811;28;19990;-66
2023/10/05 09:34:17;;;;;;;;;;;27.40;42.00;;;;;;4980384;28;20537;-65
2023/10/05 09:36:42;;;;;;;;;;;27.40;40.50;;;;;;4997876;28;19987;-66
2023/10/05 09:39:10;;;;;;;;;;;27.60;41.30;;;;;;4997754;28;20041;-65
2023/10/05 09:41:36;;;;;;;;;;;27.60;43.10;;;;;;4997546;28;19994;-67
2023/10/05 09:44:07;;;;;;;;;;;27.70;41.10;;;;;;4997631;28;19990;-65
2023/10/05 09:46:34;;;;;;;;;;;27.80;41.10;;;;;;4997604;28;19990;-65
2023/10/05 09:49:01;;;;;;;;;;;28.00;40.80;;;;;;4997597;28;20029;-67
2023/10/05 09:51:27;;;;;;;;;;;28.00;40.60;;;;;;4997548;28;20026;-67
2023/10/05 09:53:54;;;;;;;;;;;28.10;38.60;;;;;;4979958;28;20369;-65
2023/10/05 09:56:20;;;;;;;;;;;28.20;41.20;;;;;;4997246;28;20350;-66
2023/10/05 09:58:46;;;;;;;;;;;28.20;40.60;;;;;;4997368;28;20006;-66
2023/10/05 10:01:20;;;;;;;;;;;28.30;38.80;;;;;;4997233;28;19983;-67
2023/10/05 10:03:45;;;;;;;;;;;28.50;39.90;;;;;;4979588;28;20022;-65
2023/10/05 10:06:13;;;;;;;;;;;28.70;38.90;;;;;;4997321;28;20010;-66
2023/10/05 10:08:57;;;;;;;;;;;28.90;39.60;;;;;;4997059;28;20482;-67
2023/10/05 10:11:27;;;;;;;;;;;29.20;38.60;;;;;;4996972;28;20033;-64
2023/10/05 10:14:00;;;;;;;;;;;29.40;37.90;;;;;;4997056;28;20077;-65
2023/10/05 10:16:27;;;;;;;;;;;29.20;38.50;;;;;;4997092;28;20033;-65
2023/10/05 10:19:18;;;;;;;;;;;28.90;39.20;;;;;;4995881;28;20037;-67
2023/10/05 10:21:53;;;;;;;;;;;28.90;42.50;;;;;;4997036;28;19983;-65
2023/10/05 10:24:19;;;;;;;;;;;28.70;39.50;;;;;;4996874;28;19983;-64
2023/10/05 10:26:45;;;;;;;;;;;28.60;39.40;;;;;;4996618;28;19983;-66
2023/10/05 10:29:11;;;;;;;;;;;28.70;38.80;;;;;;4996802;28;20093;-65
2023/10/05 10:31:47;;;;;;;;;;;28.70;39.20;;;;;;4996705;28;20037;-67
2023/10/05 10:34:41;;;;;;;;;;;28.80;39.10;;;;;;4996745;28;20464;-64
2023/10/05 10:37:09;;;;;;;;;;;28.50;38.30;;;;;;4996590;28;19982;-65
2023/10/05 10:39:37;;;;;;;;;;;28.10;39.50;;;;;;4996548;28;20116;-67
2023/10/05 10:42:19;;;;;;;;;;;27.90;39.90;;;;;;4996649;28;19983;-67
2023/10/05 10:47:19;;;;;;;;;;;27.90;41.50;;;;;;4996814;28;20054;-67
2023/10/05 10:50:30;;;;;;;;;;;28.20;40.10;;;;;;4996370;28;20073;-65
2023/10/05 10:52:50;;;;;;;;;;;28.50;40.10;;;;;;4995669;28;20334;-66
2023/10/05 10:55:16;;;;;;;;;;;28.60;40.70;;;;;;4996214;28;20014;-66
2023/10/05 10:57:47;;;;;;;;;;;28.80;42.40;;;;;;4996629;28;20444;-67
2023/10/05 11:02:57;;;;;;;;;;;29.10;41.70;;;;;;4996272;28;20007;-66
2023/10/05 11:05:39;;;;;;;;;;;29.40;39.50;;;;;;4996036;28;19998;-68
2023/10/05 11:08:08;;;;;;;;;;;29.40;40.90;;;;;;4996222;28;19983;-65
2023/10/05 11:10:33;;;;;;;;;;;29.60;39.90;;;;;;4995779;28;20345;-64
2023/10/05 11:13:14;;;;;;;;;;;29.80;39.60;;;;;;4996133;28;20074;-66
2023/10/05 11:15:49;;;;;;;;;;;29.70;41.50;;;;;;4996048;28;19983;-64
2023/10/05 11:18:18;;;;;;;;;;;29.90;37.70;;;;;;4995877;28;19986;-63
2023/10/05 11:20:52;;;;;;;;;;;29.70;40.10;;;;;;4995871;28;19999;-64
2023/10/05 11:23:25;;;;;;;;;;;29.70;39.80;;;;;;4995499;28;19994;-63
2023/10/05 11:25:51;;;;;;;;;;;29.70;37.10;;;;;;4995886;28;20037;-62
2023/10/05 11:28:24;;;;;;;;;;;29.70;36.90;;;;;;4995484;28;19982;-64
2023/10/05 11:30:49;;;;;;;;;;;29.80;37.30;;;;;;4995535;28;19983;-63
2023/10/05 11:33:15;;;;;;;;;;;29.90;39.20;;;;;;4995671;28;20005;-67
2023/10/05 11:35:53;;;;;;;;;;;30.00;37.30;;;;;;4995578;28;19983;-67
2023/10/05 11:38:19;;;;;;;;;;;29.90;39.40;;;;;;4995307;28;20072;-66
2023/10/05 11:40:56;;;;;;;;;;;29.60;37.00;;;;;;4995451;28;20461;-65
2023/10/05 11:43:22;;;;;;;;;;;29.60;36.50;;;;;;4995262;28;19986;-63
2023/10/05 11:46:03;;;;;;;;;;;29.60;36.90;;;;;;4995687;28;19987;-64
2023/10/05 11:48:40;;;;;;;;;;;29.70;37.30;;;;;;4995199;28;20007;-65
2023/10/05 11:51:10;;;;;;;;;;;29.80;37.30;;;;;;4995307;28;20119;-65
2023/10/05 11:53:36;;;;;;;;;;;29.80;37.50;;;;;;4995068;28;19983;-63
2023/10/05 11:56:04;;;;;;;;;;;29.60;37.40;;;;;;4995131;28;20448;-64
2023/10/05 11:58:33;;;;;;;;;;;29.40;36.60;;;;;;4995230;28;20005;-65
2023/10/05 12:01:03;;;;;;;;;;;29.30;37.20;;;;;;4995081;28;20426;-64
2023/10/05 12:03:31;;;;;;;;;;;29.30;37.10;;;;;;4995380;28;20128;-63
2023/10/05 12:06:00;;;;;;;;;;;29.20;38.00;;;;;;4995067;28;19987;-65
2023/10/05 12:08:28;;;;;;;;;;;29.00;37.20;;;;;;4994716;28;20457;-65
2023/10/05 12:10:54;;;;;;;;;;;28.90;37.60;;;;;;4995005;28;19983;-63
2023/10/05 12:13:22;;;;;;;;;;;28.60;37.60;;;;;;4994890;28;19990;-64
2023/10/05 12:15:51;;;;;;;;;;;28.40;38.30;;;;;;4994765;28;19987;-63
2023/10/05 12:18:17;;;;;;;;;;;28.50;38.30;;;;;;4994885;28;20073;-64
2023/10/05 12:20:42;;;;;;;;;;;28.70;39.00;;;;;;4994671;28;20056;-64
2023/10/05 12:23:11;;;;;;;;;;;28.50;39.30;;;;;;4994504;28;19991;-64
2023/10/05 12:25:36;;;;;;;;;;;28.30;38.00;;;;;;4994681;28;19994;-64
2023/10/05 12:28:02;;;;;;;;;;;28.30;39.20;;;;;;4994678;28;19983;-65
2023/10/05 12:30:31;;;;;;;;;;;28.20;39.10;;;;;;4994474;28;20461;-65
2023/10/05 12:32:56;;;;;;;;;;;28.30;38.90;;;;;;4994528;28;19986;-63
2023/10/05 12:35:23;;;;;;;;;;;28.20;38.00;;;;;;4994245;28;20330;-65
2023/10/05 12:37:49;;;;;;;;;;;27.70;39.40;;;;;;4994458;28;20153;-63
2023/10/05 12:40:17;;;;;;;;;;;27.30;40.20;;;;;;4994038;28;20059;-63
2023/10/05 12:42:49;;;;;;;;;;;27.20;39.80;;;;;;4994390;28;20513;-64
2023/10/05 12:45:16;;;;;;;;;;;27.10;39.40;;;;;;4994294;28;20030;-64
2023/10/05 12:47:42;;;;;;;;;;;26.90;39.90;;;;;;4976890;28;20081;-64
2023/10/05 12:50:08;;;;;;;;;;;26.80;40.00;;;;;;4994150;28;20109;-64
2023/10/05 12:52:34;;;;;;;;;;;26.70;40.40;;;;;;4994260;28;20352;-63
2023/10/05 12:55:00;;;;;;;;;;;26.80;40.60;;;;;;4994156;28;20363;-64
2023/10/05 12:57:26;;;;;;;;;;;27.00;41.70;;;;;;4994269;28;19983;-64
2023/10/05 12:59:52;;;;;;;;;;;26.90;39.50;;;;;;4994281;28;19983;-63
2023/10/05 13:02:17;;;;;;;;;;;27.00;41.50;;;;;;4976681;28;19990;-64
2023/10/05 13:04:43;;;;;;;;;;;26.90;40.10;;;;;;4994013;28;20117;-64
2023/10/05 13:07:08;;;;;;;;;;;26.80;40.40;;;;;;4994226;28;20357;-64
2023/10/05 13:09:34;;;;;;;;;;;27.00;40.60;;;;;;4993987;28;20041;-65
2023/10/05 13:12:08;;;;;;;;;;;27.10;40.80;;;;;;4994174;28;20009;-64
2023/10/05 13:14:33;;;;;;;;;;;27.10;41.10;;;;;;4994195;28;20133;-64
2023/10/05 13:17:00;;;;;;;;;;;27.00;40.20;;;;;;4993990;28;20461;-65
2023/10/05 13:19:25;;;;;;;;;;;26.70;40.20;;;;;;4993923;28;20121;-64
2023/10/05 13:21:51;;;;;;;;;;;26.60;42.00;;;;;;4994055;28;20053;-64
2023/10/05 13:24:16;;;;;;;;;;;26.90;39.90;;;;;;4993961;28;20356;-64
2023/10/05 13:26:45;;;;;;;;;;;27.30;38.10;;;;;;4976550;28;20109;-65
2023/10/05 13:29:17;;;;;;;;;;;27.60;37.90;;;;;;4994011;28;20042;-66
2023/10/05 13:31:43;;;;;;;;;;;27.80;39.00;;;;;;4993880;28;19983;-64
2023/10/05 13:34:19;;;;;;;;;;;28.00;38.80;;;;;;4994005;28;20429;-65
2023/10/05 13:36:50;;;;;;;;;;;28.20;39.90;;;;;;4993926;28;20069;-66
2023/10/05 13:39:20;;;;;;;;;;;28.30;38.10;;;;;;4994016;28;20326;-65
2023/10/05 13:41:47;;;;;;;;;;;28.50;38.40;;;;;;4993931;28;19983;-64
2023/10/05 13:44:14;;;;;;;;;;;28.60;37.00;;;;;;4976332;28;20045;-66
2023/10/05 13:46:44;;;;;;;;;;;28.60;37.80;;;;;;4993863;28;19989;-64
2023/10/05 13:49:11;;;;;;;;;;;28.70;38.00;;;;;;4993532;28;20007;-64
2023/10/05 13:51:37;;;;;;;;;;;28.90;38.10;;;;;;4994280;28;19982;-66
2023/10/05 13:54:06;;;;;;;;;;;28.90;37.60;;;;;;4997609;28;19983;-66
2023/10/05 13:56:33;;;;;;;;;;;29.00;36.00;;;;;;4997529;28;20021;-66
2023/10/05 13:59:02;;;;;;;;;;;29.00;36.70;;;;;;4997389;28;20025;-65
2023/10/05 14:01:38;;;;;;;;;;;28.90;36.00;;;;;;4997365;28;20077;-64
2023/10/05 14:04:06;;;;;;;;;;;28.80;36.30;;;;;;4996113;28;21478;-67
2023/10/05 14:06:32;;;;;;;;;;;28.50;37.40;;;;;;4979742;28;19990;-65
2023/10/05 14:09:04;;;;;;;;;;;28.50;38.40;;;;;;4997228;28;20030;-64
2023/10/05 14:11:31;;;;;;;;;;;28.30;37.00;;;;;;4997216;28;20389;-64
2023/10/05 14:13:57;;;;;;;;;;;28.10;37.10;;;;;;4997039;28;19987;-66
2023/10/05 14:16:22;;;;;;;;;;;27.80;38.50;;;;;;4997043;28;20480;-64
2023/10/05 14:18:48;;;;;;;;;;;27.50;38.10;;;;;;4996829;28;19998;-64
2023/10/05 14:21:16;;;;;;;;;;;27.40;38.30;;;;;;4996873;28;19990;-66
2023/10/05 14:23:43;;;;;;;;;;;27.40;38.70;;;;;;4997001;28;19987;-66
2023/10/05 14:26:10;;;;;;;;;;;27.60;39.10;;;;;;4996885;28;20425;-66
2023/10/05 14:28:39;;;;;;;;;;;27.50;38.00;;;;;;4996699;28;19987;-65
2023/10/05 14:31:06;;;;;;;;;;;27.50;38.90;;;;;;4996706;28;20468;-66
2023/10/05 14:33:32;;;;;;;;;;;27.50;37.50;;;;;;4996738;28;19983;-64
2023/10/05 14:35:58;;;;;;;;;;;27.40;38.00;;;;;;4996599;28;19987;-65
2023/10/05 14:38:25;;;;;;;;;;;27.20;38.10;;;;;;4996662;28;20026;-65
2023/10/05 14:40:53;;;;;;;;;;;27.10;38.30;;;;;;4996634;28;20005;-66
2023/10/05 14:43:31;;;;;;;;;;;27.10;38.70;;;;;;4996436;28;19983;-64
2023/10/05 14:45:59;;;;;;;;;;;27.10;39.10;;;;;;4996280;28;20430;-65
2023/10/05 14:48:29;;;;;;;;;;;27.00;38.20;;;;;;4996413;28;19983;-65
2023/10/05 14:51:03;;;;;;;;;;;26.90;38.40;;;;;;4996414;28;19983;-65
2023/10/05 14:53:29;;;;;;;;;;;26.90;39.30;;;;;;4996377;28;19982;-66
2023/10/05 14:55:56;;;;;;;;;;;26.80;38.90;;;;;;4996294;28;20045;-66